createdAt,value
2019-01-16T00:00:20.666Z,7.93
2019-01-16T00:01:20.632Z,7.89
2019-01-16T00:02:20.600Z,8.01
2019-01-16T00:03:20.568Z,7.90
2019-01-16T00:04:20.538Z,7.95
2019-01-16T00:05:20.501Z,7.98
2019-01-16T00:06:20.471Z,7.93
2019-01-16T00:07:20.437Z,7.98
2019-01-16T00:08:20.404Z,8.00
2019-01-16T00:09:20.372Z,8.01
2019-01-16T00:10:20.340Z,7.98
2019-01-16T00:11:20.307Z,8.00
2019-01-16T00:12:20.276Z,8.04
2019-01-16T00:13:20.241Z,8.04
2019-01-16T00:14:20.210Z,8.05
2019-01-16T00:15:20.177Z,8.08
2019-01-16T00:16:20.144Z,8.08
2019-01-16T00:17:20.111Z,8.05
2019-01-16T00:18:20.079Z,8.05
2019-01-16T00:19:20.047Z,8.02
2019-01-16T00:20:20.016Z,8.10
2019-01-16T00:21:19.982Z,8.08
2019-01-16T00:22:19.953Z,8.07
2019-01-16T00:23:19.917Z,8.04
2019-01-16T00:24:19.885Z,8.04
2019-01-16T00:25:19.852Z,8.04
2019-01-16T00:26:19.819Z,8.11
2019-01-16T00:27:19.789Z,8.11
2019-01-16T00:28:19.758Z,8.10
2019-01-16T00:29:19.722Z,8.05
2019-01-16T00:30:19.688Z,8.12
2019-01-16T00:31:19.657Z,8.15
2019-01-16T00:32:19.627Z,8.16
2019-01-16T00:33:19.593Z,8.11
2019-01-16T00:34:19.561Z,8.07
2019-01-16T00:35:19.527Z,8.23
2019-01-16T00:36:19.496Z,8.22
2019-01-16T00:37:19.462Z,8.18
2019-01-16T00:38:19.434Z,8.18
2019-01-16T00:39:19.399Z,8.18
2019-01-16T00:40:19.417Z,8.18
2019-01-16T00:41:19.332Z,8.12
2019-01-16T00:42:19.301Z,8.19
2019-01-16T00:43:19.270Z,8.28
2019-01-16T00:44:19.236Z,8.29
2019-01-16T00:45:19.204Z,8.30
2019-01-16T00:46:19.172Z,8.28
2019-01-16T00:47:19.139Z,8.28
2019-01-16T00:48:24.514Z,8.25
2019-01-16T00:49:19.078Z,8.26
2019-01-16T00:50:19.042Z,8.28
2019-01-16T00:51:19.010Z,8.25
2019-01-16T00:52:18.981Z,8.20
2019-01-16T00:53:18.944Z,8.28
2019-01-16T00:54:18.912Z,8.28
2019-01-16T00:55:18.880Z,8.34
2019-01-16T00:56:18.849Z,8.25
2019-01-16T00:57:18.816Z,8.29
2019-01-16T00:58:18.784Z,8.33
2019-01-16T00:59:18.784Z,8.26
2019-01-16T01:00:18.719Z,8.23
2019-01-16T01:01:18.687Z,8.23
2019-01-16T01:02:18.654Z,8.28
2019-01-16T01:03:18.621Z,8.23
2019-01-16T01:04:18.589Z,8.25
2019-01-16T01:05:18.569Z,8.34
2019-01-16T01:06:18.531Z,8.34
2019-01-16T01:07:18.492Z,8.33
2019-01-16T01:08:18.460Z,8.28
2019-01-16T01:09:18.427Z,8.37
2019-01-16T01:10:18.397Z,8.34
2019-01-16T01:11:18.363Z,8.29
2019-01-16T01:12:18.335Z,8.30
2019-01-16T01:13:18.299Z,8.34
2019-01-16T01:14:18.266Z,8.41
2019-01-16T01:15:18.234Z,8.37
2019-01-16T01:16:18.201Z,8.34
2019-01-16T01:17:18.170Z,8.36
2019-01-16T01:18:18.137Z,8.25
2019-01-16T01:19:18.105Z,8.30
2019-01-16T01:20:18.074Z,8.34
2019-01-16T01:21:18.039Z,8.25
2019-01-16T01:22:18.008Z,8.29
2019-01-16T01:23:17.977Z,8.29
2019-01-16T01:24:17.944Z,8.34
2019-01-16T01:25:17.911Z,8.38
2019-01-16T01:26:17.879Z,8.29
2019-01-16T01:27:17.848Z,8.33
2019-01-16T01:28:17.815Z,8.33
2019-01-16T01:29:17.781Z,8.28
2019-01-16T01:30:17.786Z,8.34
2019-01-16T01:31:17.717Z,8.29
2019-01-16T01:32:17.685Z,8.33
2019-01-16T01:33:17.652Z,8.37
2019-01-16T01:34:17.622Z,8.33
2019-01-16T01:35:17.589Z,8.40
2019-01-16T01:36:17.558Z,8.30
2019-01-16T01:37:17.524Z,8.28
2019-01-16T01:38:17.492Z,8.33
2019-01-16T01:39:17.462Z,8.25
2019-01-16T01:40:17.426Z,8.33
2019-01-16T01:41:17.395Z,8.29
2019-01-16T01:42:17.511Z,8.30
2019-01-16T01:43:17.331Z,8.30
2019-01-16T01:44:17.298Z,8.36
2019-01-16T01:45:17.267Z,8.33
2019-01-16T01:46:17.233Z,8.33
2019-01-16T01:47:17.201Z,8.26
2019-01-16T01:48:17.170Z,8.25
2019-01-16T01:49:17.137Z,8.26
2019-01-16T01:50:17.103Z,8.26
2019-01-16T01:51:17.072Z,8.22
2019-01-16T01:52:17.039Z,8.26
2019-01-16T01:53:17.007Z,8.20
2019-01-16T01:54:16.975Z,8.15
2019-01-16T01:55:16.942Z,8.18
2019-01-16T01:56:16.911Z,8.28
2019-01-16T01:57:16.877Z,8.28
2019-01-16T01:58:16.848Z,8.33
2019-01-16T01:59:16.814Z,8.30
2019-01-16T02:00:16.781Z,8.33
2019-01-16T02:01:16.761Z,8.22
2019-01-16T02:02:16.717Z,8.23
2019-01-16T02:03:16.684Z,8.25
2019-01-16T02:04:16.653Z,8.19
2019-01-16T02:05:16.620Z,8.16
2019-01-16T02:06:16.588Z,8.28
2019-01-16T02:07:16.556Z,8.22
2019-01-16T02:08:16.524Z,8.26
2019-01-16T02:09:16.489Z,8.23
2019-01-16T02:10:16.458Z,8.23
2019-01-16T02:11:16.428Z,8.18
2019-01-16T02:12:16.394Z,8.37
2019-01-16T02:13:16.360Z,8.33
2019-01-16T02:14:16.328Z,8.34
2019-01-16T02:15:16.298Z,8.26
2019-01-16T02:16:16.264Z,8.25
2019-01-16T02:17:16.231Z,8.28
2019-01-16T02:18:16.200Z,8.28
2019-01-16T02:19:16.168Z,8.33
2019-01-16T02:20:16.136Z,8.30
2019-01-16T02:21:16.104Z,8.43
2019-01-16T02:22:16.070Z,8.36
2019-01-16T02:23:16.037Z,8.30
2019-01-16T02:24:16.006Z,8.34
2019-01-16T02:25:15.973Z,8.28
2019-01-16T02:26:15.941Z,8.33
2019-01-16T02:27:15.910Z,8.30
2019-01-16T02:28:15.877Z,8.25
2019-01-16T02:29:15.843Z,8.30
2019-01-16T02:30:15.822Z,8.29
2019-01-16T02:31:15.778Z,8.37
2019-01-16T02:32:15.749Z,8.28
2019-01-16T02:33:15.713Z,8.26
2019-01-16T02:34:15.682Z,8.25
2019-01-16T02:35:15.651Z,8.20
2019-01-16T02:36:15.618Z,8.33
2019-01-16T02:37:15.588Z,8.34
2019-01-16T02:38:15.553Z,8.28
2019-01-16T02:39:15.519Z,8.23
2019-01-16T02:40:15.495Z,8.26
2019-01-16T02:41:15.459Z,8.26
2019-01-16T02:42:15.474Z,8.33
2019-01-16T02:43:15.391Z,8.26
2019-01-16T02:44:15.359Z,8.22
2019-01-16T02:45:15.328Z,8.23
2019-01-16T02:46:15.294Z,8.25
2019-01-16T02:47:15.262Z,8.25
2019-01-16T02:48:15.229Z,8.23
2019-01-16T02:49:15.198Z,8.11
2019-01-16T02:50:15.164Z,8.20
2019-01-16T02:51:15.134Z,8.19
2019-01-16T02:52:15.101Z,8.23
2019-01-16T02:53:15.073Z,8.18
2019-01-16T02:54:15.039Z,8.18
2019-01-16T02:55:15.004Z,8.23
2019-01-16T02:56:14.971Z,8.16
2019-01-16T02:57:14.939Z,8.29
2019-01-16T02:58:14.908Z,8.25
2019-01-16T02:59:14.875Z,8.25
2019-01-16T03:00:15.148Z,8.15
2019-01-16T03:01:14.809Z,8.26
2019-01-16T03:02:14.789Z,8.15
2019-01-16T03:03:14.747Z,8.28
2019-01-16T03:04:14.715Z,8.18
2019-01-16T03:05:14.680Z,8.19
2019-01-16T03:06:14.648Z,8.19
2019-01-16T03:07:14.616Z,8.26
2019-01-16T03:08:14.586Z,8.30
2019-01-16T03:09:14.552Z,8.16
2019-01-16T03:10:14.518Z,8.28
2019-01-16T03:11:14.487Z,8.23
2019-01-16T03:12:14.455Z,8.26
2019-01-16T03:13:14.424Z,8.23
2019-01-16T03:14:14.392Z,8.36
2019-01-16T03:15:14.367Z,8.36
2019-01-16T03:16:14.325Z,8.26
2019-01-16T03:17:14.295Z,8.26
2019-01-16T03:18:14.265Z,8.22
2019-01-16T03:19:14.228Z,8.23
2019-01-16T03:20:14.208Z,8.20
2019-01-16T03:21:14.165Z,8.30
2019-01-16T03:22:14.133Z,8.33
2019-01-16T03:23:14.100Z,8.30
2019-01-16T03:24:14.068Z,8.25
2019-01-16T03:25:14.034Z,8.23
2019-01-16T03:26:14.002Z,8.19
2019-01-16T03:27:13.969Z,8.18
2019-01-16T03:28:13.940Z,8.18
2019-01-16T03:29:13.903Z,8.15
2019-01-16T03:30:13.875Z,8.20
2019-01-16T03:31:13.850Z,8.12
2019-01-16T03:32:13.815Z,8.16
2019-01-16T03:33:13.777Z,8.25
2019-01-16T03:34:13.743Z,8.10
2019-01-16T03:35:13.711Z,8.11
2019-01-16T03:36:13.680Z,8.18
2019-01-16T03:37:13.647Z,8.18
2019-01-16T03:38:13.614Z,8.15
2019-01-16T03:39:13.583Z,8.12
2019-01-16T03:40:13.551Z,8.05
2019-01-16T03:41:13.518Z,8.07
2019-01-16T03:42:13.484Z,8.11
2019-01-16T03:43:13.453Z,8.11
2019-01-16T03:44:13.421Z,8.08
2019-01-16T03:45:13.388Z,8.10
2019-01-16T03:46:13.356Z,8.05
2019-01-16T03:47:13.323Z,8.15
2019-01-16T03:48:13.291Z,8.19
2019-01-16T03:49:14.020Z,8.07
2019-01-16T03:50:13.230Z,8.07
2019-01-16T03:51:13.195Z,8.05
2019-01-16T03:52:13.162Z,8.10
2019-01-16T03:53:13.129Z,8.07
2019-01-16T03:54:13.097Z,8.10
2019-01-16T03:55:13.067Z,8.04
2019-01-16T03:56:13.032Z,8.08
2019-01-16T03:57:13.000Z,8.07
2019-01-16T03:58:12.968Z,8.10
2019-01-16T03:59:12.935Z,8.10
2019-01-16T04:00:12.906Z,8.12
2019-01-16T04:01:12.871Z,8.08
2019-01-16T04:02:12.839Z,8.11
2019-01-16T04:03:12.807Z,8.15
2019-01-16T04:04:12.785Z,8.07
2019-01-16T04:05:12.740Z,8.04
2019-01-16T04:06:12.712Z,8.15
2019-01-16T04:07:12.678Z,8.08
2019-01-16T04:08:12.648Z,8.01
2019-01-16T04:09:12.613Z,8.04
2019-01-16T04:10:12.581Z,8.00
2019-01-16T04:11:12.547Z,8.01
2019-01-16T04:12:12.516Z,8.00
2019-01-16T04:13:12.485Z,8.01
2019-01-16T04:14:12.455Z,8.00
2019-01-16T04:15:12.416Z,8.00
2019-01-16T04:16:12.386Z,7.97
2019-01-16T04:17:12.353Z,8.00
2019-01-16T04:18:12.323Z,7.98
2019-01-16T04:19:12.289Z,7.92
2019-01-16T04:20:12.255Z,7.92
2019-01-16T04:21:12.223Z,8.00
2019-01-16T04:22:12.196Z,7.89
2019-01-16T04:23:12.158Z,8.01
2019-01-16T04:24:12.126Z,7.87
2019-01-16T04:25:12.092Z,7.93
2019-01-16T04:26:12.059Z,7.95
2019-01-16T04:27:12.031Z,7.97
2019-01-16T04:28:11.997Z,8.04
2019-01-16T04:29:11.968Z,7.95
2019-01-16T04:30:11.931Z,8.01
2019-01-16T04:31:11.903Z,7.93
2019-01-16T04:32:11.868Z,7.95
2019-01-16T04:33:11.835Z,8.00
2019-01-16T04:34:11.801Z,8.02
2019-01-16T04:35:11.771Z,8.00
2019-01-16T04:36:11.737Z,7.98
2019-01-16T04:37:11.705Z,7.92
2019-01-16T04:38:11.675Z,7.98
2019-01-16T04:39:11.640Z,7.93
2019-01-16T04:40:11.608Z,7.95
2019-01-16T04:41:11.575Z,7.92
2019-01-16T04:42:11.542Z,7.89
2019-01-16T04:43:11.510Z,7.89
2019-01-16T04:44:11.478Z,7.93
2019-01-16T04:45:11.444Z,7.86
2019-01-16T04:46:11.412Z,7.80
2019-01-16T04:47:11.379Z,7.80
2019-01-16T04:48:11.349Z,7.83
2019-01-16T04:49:11.314Z,7.82
2019-01-16T04:50:11.289Z,7.75
2019-01-16T04:51:11.250Z,7.80
2019-01-16T04:52:11.217Z,7.82
2019-01-16T04:53:11.184Z,7.74
2019-01-16T04:54:11.155Z,7.79
2019-01-16T04:55:11.119Z,7.74
2019-01-16T04:56:11.095Z,7.75
2019-01-16T04:57:11.057Z,7.64
2019-01-16T04:58:11.023Z,7.80
2019-01-16T04:59:10.990Z,7.80
2019-01-16T05:00:10.960Z,7.68
2019-01-16T05:01:10.925Z,7.71
2019-01-16T05:02:10.898Z,7.79
2019-01-16T05:03:10.862Z,7.75
2019-01-16T05:04:10.827Z,7.80
2019-01-16T05:05:10.796Z,7.74
2019-01-16T05:06:10.763Z,7.74
2019-01-16T05:07:10.730Z,7.69
2019-01-16T05:08:10.698Z,7.75
2019-01-16T05:09:10.664Z,7.68
2019-01-16T05:10:10.632Z,7.67
2019-01-16T05:11:10.599Z,7.68
2019-01-16T05:12:10.569Z,7.71
2019-01-16T05:13:10.534Z,7.71
2019-01-16T05:14:10.502Z,7.71
2019-01-16T05:15:10.469Z,7.61
2019-01-16T05:16:10.437Z,7.72
2019-01-16T05:17:10.404Z,7.67
2019-01-16T05:18:10.370Z,7.67
2019-01-16T05:19:10.341Z,7.71
2019-01-16T05:20:10.307Z,7.67
2019-01-16T05:21:10.274Z,7.80
2019-01-16T05:22:10.241Z,7.80
2019-01-16T05:23:10.210Z,7.71
2019-01-16T05:24:10.180Z,7.71
2019-01-16T05:25:10.143Z,7.74
2019-01-16T05:26:10.112Z,7.75
2019-01-16T05:27:10.079Z,7.77
2019-01-16T05:28:10.048Z,7.71
2019-01-16T05:29:10.014Z,7.75
2019-01-16T05:30:09.980Z,7.71
2019-01-16T05:31:09.948Z,7.77
2019-01-16T05:32:09.916Z,7.74
2019-01-16T05:33:09.882Z,7.80
2019-01-16T05:34:09.850Z,7.60
2019-01-16T05:35:09.825Z,7.69
2019-01-16T05:36:09.786Z,7.64
2019-01-16T05:37:09.752Z,7.61
2019-01-16T05:38:09.720Z,7.63
2019-01-16T05:39:09.687Z,7.67
2019-01-16T05:40:09.654Z,7.63
2019-01-16T05:41:09.623Z,7.63
2019-01-16T05:42:09.593Z,7.52
2019-01-16T05:43:09.557Z,7.67
2019-01-16T05:44:09.525Z,7.58
2019-01-16T05:45:09.491Z,7.57
2019-01-16T05:46:09.460Z,7.58
2019-01-16T05:47:09.430Z,7.60
2019-01-16T05:48:09.394Z,7.52
2019-01-16T05:49:09.362Z,7.55
2019-01-16T05:50:09.329Z,7.55
2019-01-16T05:51:09.296Z,7.53
2019-01-16T05:52:09.268Z,7.48
2019-01-16T05:53:09.230Z,7.53
2019-01-16T05:54:09.198Z,7.60
2019-01-16T05:55:09.165Z,7.55
2019-01-16T05:56:09.134Z,7.49
2019-01-16T05:57:09.099Z,7.64
2019-01-16T05:58:09.072Z,7.57
2019-01-16T05:59:09.035Z,7.55
2019-01-16T06:00:09.002Z,7.57
2019-01-16T06:01:08.970Z,7.52
2019-01-16T06:02:08.939Z,7.58
2019-01-16T06:03:08.905Z,7.53
2019-01-16T06:04:08.874Z,7.50
2019-01-16T06:05:08.840Z,7.46
2019-01-16T06:06:08.807Z,7.49
2019-01-16T06:07:08.774Z,7.34
2019-01-16T06:08:08.745Z,7.35
2019-01-16T06:09:08.710Z,7.37
2019-01-16T06:10:08.676Z,7.30
2019-01-16T06:11:08.643Z,7.30
2019-01-16T06:12:08.611Z,7.32
2019-01-16T06:13:08.578Z,7.24
2019-01-16T06:14:08.544Z,7.31
2019-01-16T06:15:08.512Z,7.24
2019-01-16T06:16:08.480Z,7.25
2019-01-16T06:17:08.445Z,7.17
2019-01-16T06:18:08.413Z,7.24
2019-01-16T06:19:08.382Z,7.24
2019-01-16T06:20:08.355Z,7.25
2019-01-16T06:21:08.316Z,7.20
2019-01-16T06:22:08.282Z,7.21
2019-01-16T06:23:08.249Z,7.27
2019-01-16T06:24:08.218Z,7.25
2019-01-16T06:25:08.184Z,7.25
2019-01-16T06:26:08.160Z,7.23
2019-01-16T06:27:08.120Z,7.24
2019-01-16T06:28:08.085Z,7.23
2019-01-16T06:29:08.052Z,7.27
2019-01-16T06:30:08.022Z,7.25
2019-01-16T06:31:07.985Z,7.28
2019-01-16T06:32:07.961Z,7.28
2019-01-16T06:33:07.922Z,7.25
2019-01-16T06:34:07.889Z,7.27
2019-01-16T06:35:07.859Z,7.31
2019-01-16T06:36:07.825Z,7.21
2019-01-16T06:37:07.790Z,7.30
2019-01-16T06:38:07.756Z,7.25
2019-01-16T06:39:07.725Z,7.37
2019-01-16T06:40:07.692Z,7.27
2019-01-16T06:41:07.657Z,7.35
2019-01-16T06:42:07.627Z,7.37
2019-01-16T06:43:07.591Z,7.39
2019-01-16T06:44:07.560Z,7.34
2019-01-16T06:45:07.527Z,7.30
2019-01-16T06:46:07.494Z,7.31
2019-01-16T06:47:07.463Z,7.40
2019-01-16T06:48:07.428Z,7.45
2019-01-16T06:49:07.394Z,7.39
2019-01-16T06:50:07.363Z,7.42
2019-01-16T06:51:07.329Z,7.43
2019-01-16T06:52:07.297Z,7.45
2019-01-16T06:53:07.263Z,7.48
2019-01-16T06:54:07.230Z,7.45
2019-01-16T06:55:07.199Z,7.45
2019-01-16T06:56:07.166Z,7.43
2019-01-16T06:57:07.133Z,7.46
2019-01-16T06:58:07.102Z,7.49
2019-01-16T06:59:07.066Z,7.58
2019-01-16T07:00:07.034Z,7.53
2019-01-16T07:01:07.004Z,7.50
2019-01-16T07:02:06.970Z,7.52
2019-01-16T07:03:06.940Z,7.57
2019-01-16T07:04:06.904Z,7.58
2019-01-16T07:05:06.871Z,7.50
2019-01-16T07:06:06.839Z,7.55
2019-01-16T07:07:06.805Z,7.57
2019-01-16T07:08:06.772Z,7.50
2019-01-16T07:09:06.741Z,7.48
2019-01-16T07:10:06.708Z,7.49
2019-01-16T07:11:06.673Z,7.50
2019-01-16T07:12:06.641Z,7.53
2019-01-16T07:13:06.607Z,7.52
2019-01-16T07:14:06.577Z,7.58
2019-01-16T07:15:06.542Z,7.58
2019-01-16T07:16:06.513Z,7.52
2019-01-16T07:17:06.477Z,7.52
2019-01-16T07:18:06.445Z,7.57
2019-01-16T07:19:06.412Z,7.57
2019-01-16T07:20:09.751Z,7.53
2019-01-16T07:21:06.346Z,7.50
2019-01-16T07:22:06.319Z,7.58
2019-01-16T07:23:06.331Z,7.55
2019-01-16T07:24:06.249Z,7.57
2019-01-16T07:25:06.215Z,7.58
2019-01-16T07:26:06.183Z,7.50
2019-01-16T07:27:06.150Z,7.57
2019-01-16T07:28:06.119Z,7.48
2019-01-16T07:29:06.087Z,7.49
2019-01-16T07:30:06.052Z,7.49
2019-01-16T07:31:06.023Z,7.55
2019-01-16T07:32:05.988Z,7.48
2019-01-16T07:33:05.954Z,7.48
2019-01-16T07:34:05.922Z,7.53
2019-01-16T07:35:05.890Z,7.46
2019-01-16T07:36:05.857Z,7.49
2019-01-16T07:37:05.823Z,7.43
2019-01-16T07:38:05.794Z,7.46
2019-01-16T07:39:05.760Z,7.52
2019-01-16T07:40:05.730Z,7.46
2019-01-16T07:41:05.693Z,7.50
2019-01-16T07:42:05.661Z,7.48
2019-01-16T07:43:05.630Z,7.49
2019-01-16T07:44:05.597Z,7.45
2019-01-16T07:45:05.564Z,7.49
2019-01-16T07:46:05.530Z,7.43
2019-01-16T07:47:05.497Z,7.53
2019-01-16T07:48:05.466Z,7.46
2019-01-16T07:49:05.432Z,7.50
2019-01-16T07:50:05.401Z,7.49
2019-01-16T07:51:05.367Z,7.45
2019-01-16T07:52:05.334Z,7.49
2019-01-16T07:53:05.301Z,7.46
2019-01-16T07:54:05.268Z,7.48
2019-01-16T07:55:05.239Z,7.43
2019-01-16T07:56:05.205Z,7.48
2019-01-16T07:57:05.174Z,7.46
2019-01-16T07:58:05.140Z,7.45
2019-01-16T07:59:05.106Z,7.49
2019-01-16T08:00:05.073Z,7.45
2019-01-16T08:01:05.040Z,7.46
2019-01-16T08:02:05.008Z,7.49
2019-01-16T08:03:04.975Z,7.39
2019-01-16T08:04:04.943Z,7.46
2019-01-16T08:05:04.911Z,7.43
2019-01-16T08:06:04.879Z,7.48
2019-01-16T08:07:04.845Z,7.53
2019-01-16T08:08:04.813Z,7.58
2019-01-16T08:09:04.779Z,7.53
2019-01-16T08:10:04.749Z,7.43
2019-01-16T08:11:04.714Z,7.50
2019-01-16T08:12:04.684Z,7.57
2019-01-16T08:13:04.650Z,7.53
2019-01-16T08:14:04.616Z,7.53
2019-01-16T08:15:04.584Z,7.55
2019-01-16T08:16:04.552Z,7.55
2019-01-16T08:17:04.518Z,7.60
2019-01-16T08:18:04.486Z,7.63
2019-01-16T08:19:04.454Z,7.60
2019-01-16T08:20:04.426Z,7.63
2019-01-16T08:21:04.388Z,7.64
2019-01-16T08:22:04.355Z,7.69
2019-01-16T08:23:04.323Z,7.64
2019-01-16T08:24:04.291Z,7.75
2019-01-16T08:25:04.407Z,7.68
2019-01-16T08:26:04.224Z,7.71
2019-01-16T08:27:04.192Z,7.68
2019-01-16T08:28:04.160Z,7.61
2019-01-16T08:29:04.128Z,7.68
2019-01-16T08:30:04.098Z,7.64
2019-01-16T08:31:04.066Z,7.69
2019-01-16T08:32:04.030Z,7.64
2019-01-16T08:33:03.997Z,7.63
2019-01-16T08:34:03.965Z,7.68
2019-01-16T08:35:03.933Z,7.68
2019-01-16T08:36:03.901Z,7.61
2019-01-16T08:37:03.867Z,7.79
2019-01-16T08:38:03.834Z,7.79
2019-01-16T08:39:03.803Z,7.77
2019-01-16T08:40:03.772Z,7.67
2019-01-16T08:41:03.737Z,7.80
2019-01-16T08:42:03.703Z,7.80
2019-01-16T08:43:03.674Z,7.74
2019-01-16T08:44:03.641Z,7.67
2019-01-16T08:45:03.606Z,7.79
2019-01-16T08:46:03.575Z,7.74
2019-01-16T08:47:03.544Z,7.82
2019-01-16T08:48:03.510Z,7.77
2019-01-16T08:49:03.487Z,7.87
2019-01-16T08:50:03.446Z,7.80
2019-01-16T08:51:03.414Z,7.85
2019-01-16T08:52:03.381Z,7.74
2019-01-16T08:53:03.349Z,7.77
2019-01-16T08:54:03.317Z,7.87
2019-01-16T08:55:03.284Z,7.85
2019-01-16T08:56:03.251Z,7.93
2019-01-16T08:57:03.218Z,7.89
2019-01-16T08:58:03.187Z,7.89
2019-01-16T08:59:03.153Z,7.95
2019-01-16T09:00:03.121Z,8.00
2019-01-16T09:01:03.089Z,7.93
2019-01-16T09:02:03.056Z,8.00
2019-01-16T09:03:03.024Z,8.05
2019-01-16T09:04:02.993Z,7.93
2019-01-16T09:05:02.959Z,8.01
2019-01-16T09:06:02.926Z,7.95
2019-01-16T09:07:02.894Z,7.93
2019-01-16T09:08:02.862Z,7.97
2019-01-16T09:09:02.831Z,7.98
2019-01-16T09:10:02.798Z,8.01
2019-01-16T09:11:02.766Z,8.02
2019-01-16T09:12:02.733Z,8.02
2019-01-16T09:13:02.700Z,8.01
2019-01-16T09:14:02.670Z,8.11
2019-01-16T09:15:02.636Z,8.05
2019-01-16T09:16:02.603Z,8.15
2019-01-16T09:17:02.572Z,8.05
2019-01-16T09:18:02.540Z,8.08
2019-01-16T09:19:02.508Z,8.18
2019-01-16T09:20:02.474Z,8.10
2019-01-16T09:21:02.440Z,8.12
2019-01-16T09:22:02.408Z,8.18
2019-01-16T09:23:02.378Z,8.18
2019-01-16T09:24:02.344Z,8.15
2019-01-16T09:25:02.312Z,8.16
2019-01-16T09:26:02.284Z,8.15
2019-01-16T09:27:02.248Z,8.15
2019-01-16T09:28:02.215Z,8.22
2019-01-16T09:29:02.185Z,8.29
2019-01-16T09:30:02.151Z,8.30
2019-01-16T09:31:02.119Z,8.28
2019-01-16T09:32:02.087Z,8.28
2019-01-16T09:33:02.054Z,8.30
2019-01-16T09:34:02.022Z,8.30
2019-01-16T09:35:01.991Z,8.36
2019-01-16T09:36:01.957Z,8.40
2019-01-16T09:37:01.924Z,8.41
2019-01-16T09:38:01.893Z,8.36
2019-01-16T09:39:01.860Z,8.38
2019-01-16T09:40:01.829Z,8.41
2019-01-16T09:41:01.795Z,8.41
2019-01-16T09:42:01.764Z,8.38
2019-01-16T09:43:01.734Z,8.38
2019-01-16T09:44:01.700Z,8.45
2019-01-16T09:45:01.668Z,8.44
2019-01-16T09:46:01.635Z,8.44
2019-01-16T09:47:01.603Z,8.44
2019-01-16T09:48:01.571Z,8.44
2019-01-16T09:49:01.539Z,8.41
2019-01-16T09:50:01.509Z,8.48
2019-01-16T09:51:01.475Z,8.36
2019-01-16T09:52:01.444Z,8.40
2019-01-16T09:53:01.412Z,8.40
2019-01-16T09:54:01.379Z,8.41
2019-01-16T09:55:01.350Z,8.44
2019-01-16T09:56:01.315Z,8.52
2019-01-16T09:57:01.284Z,8.44
2019-01-16T09:58:01.251Z,8.50
2019-01-16T09:59:01.219Z,8.44
2019-01-16T10:00:01.188Z,8.45
2019-01-16T10:01:01.155Z,8.50
2019-01-16T10:02:01.123Z,8.55
2019-01-16T10:03:01.091Z,8.43
2019-01-16T10:04:01.061Z,8.45
2019-01-16T10:05:01.028Z,8.50
2019-01-16T10:06:00.995Z,8.55
2019-01-16T10:07:00.986Z,8.55
2019-01-16T10:08:00.934Z,8.53
2019-01-16T10:09:00.898Z,8.53
2019-01-16T10:10:00.867Z,8.56
2019-01-16T10:11:00.834Z,8.59
2019-01-16T10:12:00.802Z,8.55
2019-01-16T10:13:00.772Z,8.58
2019-01-16T10:14:00.739Z,8.59
2019-01-16T10:15:00.707Z,8.62
2019-01-16T10:16:00.675Z,8.55
2019-01-16T10:17:00.642Z,8.59
2019-01-16T10:18:00.612Z,8.55
2019-01-16T10:19:00.579Z,8.55
2019-01-16T10:20:00.547Z,8.52
2019-01-16T10:21:00.513Z,8.47
2019-01-16T10:22:00.482Z,8.53
2019-01-16T10:23:00.450Z,8.52
2019-01-16T10:24:00.418Z,8.55
2019-01-16T10:25:00.405Z,8.55
2019-01-16T10:26:00.355Z,8.50
2019-01-16T10:27:00.326Z,8.56
2019-01-16T10:28:00.291Z,8.50
2019-01-16T10:29:00.260Z,8.50
2019-01-16T10:30:00.230Z,8.50
2019-01-16T10:31:00.198Z,8.48
2019-01-16T10:32:00.163Z,8.43
2019-01-16T10:33:00.129Z,8.50
2019-01-16T10:34:00.098Z,8.53
2019-01-16T10:35:00.573Z,8.50
2019-01-16T10:36:00.033Z,8.53
2019-01-16T10:37:00.001Z,8.56
2019-01-16T10:37:59.976Z,8.61
2019-01-16T10:38:59.938Z,8.55
2019-01-16T10:39:59.906Z,8.44
2019-01-16T10:40:59.873Z,8.58
2019-01-16T10:41:59.841Z,8.58
2019-01-16T10:42:59.810Z,8.61
2019-01-16T10:43:59.778Z,8.55
2019-01-16T10:44:59.746Z,8.61
2019-01-16T10:45:59.712Z,8.59
2019-01-16T10:46:59.680Z,8.58
2019-01-16T10:47:59.652Z,8.61
2019-01-16T10:48:59.618Z,8.59
2019-01-16T10:49:59.585Z,8.55
2019-01-16T10:51:03.340Z,8.55
2019-01-16T10:51:59.522Z,8.63
2019-01-16T10:52:59.489Z,8.59
2019-01-16T10:53:59.457Z,8.55
2019-01-16T10:54:59.425Z,8.63
2019-01-16T10:55:59.393Z,8.56
2019-01-16T10:56:59.361Z,8.50
2019-01-16T10:57:59.329Z,8.61
2019-01-16T10:58:59.299Z,8.56
2019-01-16T10:59:59.266Z,8.55
2019-01-16T11:00:59.234Z,8.55
2019-01-16T11:01:59.201Z,8.50
2019-01-16T11:02:59.169Z,8.45
2019-01-16T11:03:59.137Z,8.47
2019-01-16T11:04:59.109Z,8.48
2019-01-16T11:05:59.073Z,8.48
2019-01-16T11:06:59.042Z,8.55
2019-01-16T11:07:59.011Z,8.53
2019-01-16T11:08:58.978Z,8.52
2019-01-16T11:09:58.948Z,8.50
2019-01-16T11:10:58.917Z,8.45
2019-01-16T11:11:58.885Z,8.47
2019-01-16T11:12:58.849Z,8.52
2019-01-16T11:13:58.817Z,8.56
2019-01-16T11:14:58.786Z,8.53
2019-01-16T11:15:58.755Z,8.52
2019-01-16T11:16:58.722Z,8.50
2019-01-16T11:17:58.690Z,8.52
2019-01-16T11:18:58.659Z,8.47
2019-01-16T11:19:58.626Z,8.43
2019-01-16T11:20:58.597Z,8.41
2019-01-16T11:21:58.563Z,8.41
2019-01-16T11:22:58.531Z,8.37
2019-01-16T11:23:58.498Z,8.36
2019-01-16T11:24:58.466Z,8.37
2019-01-16T11:25:58.435Z,8.26
2019-01-16T11:26:58.402Z,8.23
2019-01-16T11:27:58.372Z,8.23
2019-01-16T11:28:58.337Z,8.25
2019-01-16T11:29:58.306Z,8.20
2019-01-16T11:30:58.273Z,8.16
2019-01-16T11:31:58.244Z,8.16
2019-01-16T11:32:58.208Z,8.18
2019-01-16T11:33:58.178Z,8.11
2019-01-16T11:34:58.146Z,8.05
2019-01-16T11:35:58.120Z,8.10
2019-01-16T11:36:58.080Z,8.02
2019-01-16T11:37:58.050Z,8.05
2019-01-16T11:38:58.017Z,7.97
2019-01-16T11:40:04.642Z,7.98
2019-01-16T11:40:57.951Z,7.97
2019-01-16T11:41:57.919Z,7.97
2019-01-16T11:42:57.890Z,7.93
2019-01-16T11:43:57.855Z,7.86
2019-01-16T11:44:57.824Z,7.85
2019-01-16T11:45:57.790Z,7.83
2019-01-16T11:46:57.761Z,7.83
2019-01-16T11:47:59.167Z,7.82
2019-01-16T11:48:57.698Z,7.79
2019-01-16T11:49:57.662Z,7.80
2019-01-16T11:50:57.634Z,7.82
2019-01-16T11:51:57.597Z,7.79
2019-01-16T11:52:57.564Z,7.79
2019-01-16T11:53:57.533Z,7.79
2019-01-16T11:54:57.502Z,7.79
2019-01-16T11:55:57.489Z,7.75
2019-01-16T11:56:57.435Z,7.74
2019-01-16T11:57:57.407Z,7.75
2019-01-16T11:58:57.370Z,7.80
2019-01-16T11:59:57.337Z,7.74
2019-01-16T12:00:57.304Z,7.85
2019-01-16T12:01:57.273Z,7.79
2019-01-16T12:02:57.241Z,7.69
2019-01-16T12:03:57.209Z,7.75
2019-01-16T12:04:57.178Z,7.75
2019-01-16T12:05:57.145Z,7.74
2019-01-16T12:06:57.262Z,7.75
2019-01-16T12:07:57.080Z,7.77
2019-01-16T12:08:57.045Z,7.79
2019-01-16T12:09:57.013Z,7.79
2019-01-16T12:10:56.982Z,7.77
2019-01-16T12:11:56.949Z,7.80
2019-01-16T12:12:56.917Z,7.83
2019-01-16T12:13:56.885Z,7.82
2019-01-16T12:14:56.852Z,7.75
2019-01-16T12:15:56.819Z,7.87
2019-01-16T12:16:56.789Z,7.82
2019-01-16T12:17:56.756Z,7.83
2019-01-16T12:18:56.722Z,7.77
2019-01-16T12:19:56.689Z,7.86
2019-01-16T12:20:56.658Z,7.89
2019-01-16T12:21:56.625Z,7.92
2019-01-16T12:22:56.592Z,7.93
2019-01-16T12:23:56.562Z,7.95
2019-01-16T12:24:56.529Z,7.93
2019-01-16T12:25:56.496Z,7.93
2019-01-16T12:26:56.464Z,7.93
2019-01-16T12:27:56.432Z,7.95
2019-01-16T12:28:56.402Z,7.95
2019-01-16T12:29:56.367Z,7.93
2019-01-16T12:30:56.334Z,7.93
2019-01-16T12:31:56.303Z,7.92
2019-01-16T12:32:56.269Z,7.85
2019-01-16T12:33:56.238Z,7.90
2019-01-16T12:34:56.207Z,7.85
2019-01-16T12:35:56.174Z,7.92
2019-01-16T12:36:56.140Z,7.92
2019-01-16T12:37:56.110Z,7.97
2019-01-16T12:38:56.075Z,7.90
2019-01-16T12:39:56.045Z,7.93
2019-01-16T12:40:56.011Z,7.95
2019-01-16T12:41:59.701Z,7.90
2019-01-16T12:42:55.947Z,7.93
2019-01-16T12:43:55.917Z,7.86
2019-01-16T12:44:55.881Z,7.87
2019-01-16T12:45:55.849Z,7.89
2019-01-16T12:46:55.818Z,7.80
2019-01-16T12:47:55.785Z,7.79
2019-01-16T12:48:55.753Z,7.79
2019-01-16T12:49:55.720Z,7.77
2019-01-16T12:50:55.689Z,7.80
2019-01-16T12:51:55.655Z,7.72
2019-01-16T12:52:55.625Z,7.79
2019-01-16T12:53:55.591Z,7.77
2019-01-16T12:54:55.558Z,7.79
2019-01-16T12:55:55.526Z,7.79
2019-01-16T12:56:55.493Z,7.79
2019-01-16T12:57:55.461Z,7.79
2019-01-16T12:58:55.427Z,7.80
2019-01-16T12:59:55.397Z,7.89
2019-01-16T13:00:55.364Z,7.98
2019-01-16T13:01:55.331Z,7.93
2019-01-16T13:02:55.299Z,8.01
2019-01-16T13:03:55.268Z,7.95
2019-01-16T13:04:55.234Z,7.87
2019-01-16T13:05:55.203Z,7.92
2019-01-16T13:06:55.170Z,8.01
2019-01-16T13:07:55.137Z,7.95
2019-01-16T13:08:55.205Z,8.00
2019-01-16T13:09:55.073Z,8.04
2019-01-16T13:10:55.044Z,8.01
2019-01-16T13:11:55.010Z,8.05
2019-01-16T13:12:54.978Z,8.07
2019-01-16T13:13:54.944Z,8.11
2019-01-16T13:14:54.912Z,8.07
2019-01-16T13:15:54.882Z,8.10
2019-01-16T13:16:54.848Z,8.11
2019-01-16T13:17:54.814Z,8.08